sensor_id;sensor_type;location;lat;lon;timestamp;P1;durP1;ratioP1;P2;durP2;ratioP2
50367;SDS011;36281;34.132;-118.018;2023-04-24T00:01:41;12.10;;;5.72;;
50367;SDS011;36281;34.132;-118.018;2023-04-24T00:04:11;13.70;;;6.03;;
50367;SDS011;36281;34.132;-118.018;2023-04-24T00:06:41;14.05;;;6.45;;
50367;SDS011;36281;34.132;-118.018;2023-04-24T00:09:11;13.50;;;6.00;;
50367;SDS011;36281;34.132;-118.018;2023-04-24T00:11:40;12.18;;;5.22;;
50367;SDS011;36281;34.132;-118.018;2023-04-24T00:14:11;14.77;;;6.03;;
50367;SDS011;36281;34.132;-118.018;2023-04-24T00:16:40;13.18;;;6.20;;
50367;SDS011;36281;34.132;-118.018;2023-04-24T00:19:09;15.35;;;6.35;;
50367;SDS011;36281;34.132;-118.018;2023-04-24T00:21:39;12.18;;;5.90;;
50367;SDS011;36281;34.132;-118.018;2023-04-24T00:24:09;15.27;;;6.10;;
50367;SDS011;36281;34.132;-118.018;2023-04-24T00:26:38;17.95;;;6.65;;
50367;SDS011;36281;34.132;-118.018;2023-04-24T00:29:09;15.90;;;6.70;;
50367;SDS011;36281;34.132;-118.018;2023-04-24T00:31:38;14.85;;;6.18;;
50367;SDS011;36281;34.132;-118.018;2023-04-24T00:34:07;10.82;;;5.93;;
50367;SDS011;36281;34.132;-118.018;2023-04-24T00:36:38;13.23;;;6.07;;
50367;SDS011;36281;34.132;-118.018;2023-04-24T00:39:07;15.43;;;6.60;;
50367;SDS011;36281;34.132;-118.018;2023-04-24T00:41:37;15.77;;;6.30;;
50367;SDS011;36281;34.132;-118.018;2023-04-24T00:44:06;12.45;;;6.32;;
50367;SDS011;36281;34.132;-118.018;2023-04-24T00:46:37;12.63;;;6.30;;
50367;SDS011;36281;34.132;-118.018;2023-04-24T00:49:06;16.65;;;6.40;;
50367;SDS011;36281;34.132;-118.018;2023-04-24T00:51:35;13.20;;;6.75;;
50367;SDS011;36281;34.132;-118.018;2023-04-24T00:54:05;14.93;;;6.38;;
50367;SDS011;36281;34.132;-118.018;2023-04-24T00:56:34;16.08;;;6.50;;
50367;SDS011;36281;34.132;-118.018;2023-04-24T00:59:03;13.07;;;6.30;;
50367;SDS011;36281;34.132;-118.018;2023-04-24T01:01:34;12.23;;;6.30;;
50367;SDS011;36281;34.132;-118.018;2023-04-24T01:04:04;13.23;;;6.20;;
50367;SDS011;36281;34.132;-118.018;2023-04-24T01:06:34;13.50;;;5.65;;
50367;SDS011;36281;34.132;-118.018;2023-04-24T01:09:06;17.63;;;7.05;;
50367;SDS011;36281;34.132;-118.018;2023-04-24T01:11:36;13.93;;;6.85;;
50367;SDS011;36281;34.132;-118.018;2023-04-24T01:14:05;14.65;;;5.95;;
50367;SDS011;36281;34.132;-118.018;2023-04-24T01:16:36;14.73;;;6.78;;
50367;SDS011;36281;34.132;-118.018;2023-04-24T01:19:05;16.00;;;6.45;;
50367;SDS011;36281;34.132;-118.018;2023-04-24T01:21:36;14.25;;;6.05;;
50367;SDS011;36281;34.132;-118.018;2023-04-24T01:24:07;14.85;;;6.38;;
50367;SDS011;36281;34.132;-118.018;2023-04-24T01:26:36;10.95;;;6.03;;
50367;SDS011;36281;34.132;-118.018;2023-04-24T01:29:05;16.88;;;6.72;;
50367;SDS011;36281;34.132;-118.018;2023-04-24T01:31:35;18.90;;;7.13;;
50367;SDS011;36281;34.132;-118.018;2023-04-24T01:34:05;12.50;;;6.13;;
50367;SDS011;36281;34.132;-118.018;2023-04-24T01:36:35;14.15;;;6.15;;
50367;SDS011;36281;34.132;-118.018;2023-04-24T01:39:07;13.07;;;6.35;;
50367;SDS011;36281;34.132;-118.018;2023-04-24T01:41:36;11.50;;;5.63;;
50367;SDS011;36281;34.132;-118.018;2023-04-24T01:44:05;19.15;;;7.60;;
50367;SDS011;36281;34.132;-118.018;2023-04-24T01:46:35;14.98;;;7.25;;
50367;SDS011;36281;34.132;-118.018;2023-04-24T01:49:04;15.88;;;6.53;;
50367;SDS011;36281;34.132;-118.018;2023-04-24T01:51:33;17.02;;;6.85;;
50367;SDS011;36281;34.132;-118.018;2023-04-24T01:54:02;16.98;;;6.43;;
50367;SDS011;36281;34.132;-118.018;2023-04-24T01:56:34;17.95;;;7.00;;
50367;SDS011;36281;34.132;-118.018;2023-04-24T01:59:04;17.25;;;6.85;;
50367;SDS011;36281;34.132;-118.018;2023-04-24T02:01:34;15.20;;;6.78;;
50367;SDS011;36281;34.132;-118.018;2023-04-24T02:04:04;19.25;;;6.57;;
50367;SDS011;36281;34.132;-118.018;2023-04-24T02:06:34;14.63;;;6.78;;
50367;SDS011;36281;34.132;-118.018;2023-04-24T02:09:03;14.85;;;6.80;;
50367;SDS011;36281;34.132;-118.018;2023-04-24T02:11:34;15.90;;;6.85;;
50367;SDS011;36281;34.132;-118.018;2023-04-24T02:14:03;16.35;;;7.38;;
50367;SDS011;36281;34.132;-118.018;2023-04-24T02:16:32;14.20;;;6.63;;
50367;SDS011;36281;34.132;-118.018;2023-04-24T02:19:03;13.55;;;6.70;;
50367;SDS011;36281;34.132;-118.018;2023-04-24T02:21:32;17.70;;;6.80;;
50367;SDS011;36281;34.132;-118.018;2023-04-24T02:24:02;15.38;;;6.97;;
50367;SDS011;36281;34.132;-118.018;2023-04-24T02:26:31;16.63;;;6.78;;
50367;SDS011;36281;34.132;-118.018;2023-04-24T02:29:02;15.90;;;7.45;;
50367;SDS011;36281;34.132;-118.018;2023-04-24T02:31:31;17.90;;;7.70;;
50367;SDS011;36281;34.132;-118.018;2023-04-24T02:34:00;18.10;;;7.38;;
50367;SDS011;36281;34.132;-118.018;2023-04-24T02:36:29;17.00;;;8.27;;
50367;SDS011;36281;34.132;-118.018;2023-04-24T02:38:58;15.50;;;7.55;;
50367;SDS011;36281;34.132;-118.018;2023-04-24T02:41:28;15.82;;;7.15;;
50367;SDS011;36281;34.132;-118.018;2023-04-24T02:43:59;16.85;;;7.68;;
50367;SDS011;36281;34.132;-118.018;2023-04-24T02:46:30;19.35;;;7.25;;
50367;SDS011;36281;34.132;-118.018;2023-04-24T02:48:59;18.73;;;7.97;;
50367;SDS011;36281;34.132;-118.018;2023-04-24T02:51:28;16.25;;;7.57;;
50367;SDS011;36281;34.132;-118.018;2023-04-24T02:53:58;18.40;;;7.35;;
50367;SDS011;36281;34.132;-118.018;2023-04-24T02:56:27;17.27;;;7.30;;
50367;SDS011;36281;34.132;-118.018;2023-04-24T02:58:56;21.10;;;7.43;;
50367;SDS011;36281;34.132;-118.018;2023-04-24T03:01:27;16.67;;;8.07;;
50367;SDS011;36281;34.132;-118.018;2023-04-24T03:03:56;14.70;;;6.82;;
50367;SDS011;36281;34.132;-118.018;2023-04-24T03:06:26;19.25;;;8.20;;
50367;SDS011;36281;34.132;-118.018;2023-04-24T03:08:55;18.77;;;7.53;;
50367;SDS011;36281;34.132;-118.018;2023-04-24T03:11:24;17.60;;;8.07;;
50367;SDS011;36281;34.132;-118.018;2023-04-24T03:13:53;17.58;;;7.32;;
50367;SDS011;36281;34.132;-118.018;2023-04-24T03:16:22;20.75;;;7.70;;
50367;SDS011;36281;34.132;-118.018;2023-04-24T03:18:53;17.52;;;7.40;;
50367;SDS011;36281;34.132;-118.018;2023-04-24T03:21:23;18.75;;;7.95;;
50367;SDS011;36281;34.132;-118.018;2023-04-24T03:23:52;19.70;;;8.23;;
50367;SDS011;36281;34.132;-118.018;2023-04-24T03:26:21;14.98;;;7.55;;
50367;SDS011;36281;34.132;-118.018;2023-04-24T03:28:50;13.85;;;6.88;;
50367;SDS011;36281;34.132;-118.018;2023-04-24T03:31:19;17.40;;;7.60;;
50367;SDS011;36281;34.132;-118.018;2023-04-24T03:33:49;17.90;;;7.57;;
50367;SDS011;36281;34.132;-118.018;2023-04-24T03:36:20;20.17;;;7.93;;
50367;SDS011;36281;34.132;-118.018;2023-04-24T03:38:49;18.48;;;7.32;;
50367;SDS011;36281;34.132;-118.018;2023-04-24T03:41:18;14.25;;;6.88;;
50367;SDS011;36281;34.132;-118.018;2023-04-24T03:43:48;18.52;;;8.13;;
50367;SDS011;36281;34.132;-118.018;2023-04-24T03:46:17;21.23;;;7.97;;
50367;SDS011;36281;34.132;-118.018;2023-04-24T03:48:46;18.55;;;7.63;;
50367;SDS011;36281;34.132;-118.018;2023-04-24T03:51:15;17.10;;;8.18;;
50367;SDS011;36281;34.132;-118.018;2023-04-24T03:53:46;16.08;;;8.38;;
50367;SDS011;36281;34.132;-118.018;2023-04-24T03:56:15;17.15;;;7.75;;
50367;SDS011;36281;34.132;-118.018;2023-04-24T03:58:44;20.98;;;8.48;;
50367;SDS011;36281;34.132;-118.018;2023-04-24T04:01:13;22.50;;;7.95;;
50367;SDS011;36281;34.132;-118.018;2023-04-24T04:03:43;16.05;;;8.30;;
50367;SDS011;36281;34.132;-118.018;2023-04-24T04:06:13;15.80;;;8.10;;
50367;SDS011;36281;34.132;-118.018;2023-04-24T04:08:42;20.55;;;8.38;;
50367;SDS011;36281;34.132;-118.018;2023-04-24T04:11:13;17.83;;;8.43;;
50367;SDS011;36281;34.132;-118.018;2023-04-24T04:13:42;17.98;;;8.35;;
50367;SDS011;36281;34.132;-118.018;2023-04-24T04:16:11;16.25;;;8.25;;
50367;SDS011;36281;34.132;-118.018;2023-04-24T04:18:40;17.73;;;8.15;;
50367;SDS011;36281;34.132;-118.018;2023-04-24T04:21:09;23.75;;;9.13;;
50367;SDS011;36281;34.132;-118.018;2023-04-24T04:23:38;23.45;;;8.57;;
50367;SDS011;36281;34.132;-118.018;2023-04-24T04:26:07;20.38;;;8.82;;
50367;SDS011;36281;34.132;-118.018;2023-04-24T04:28:38;19.42;;;8.35;;
50367;SDS011;36281;34.132;-118.018;2023-04-24T04:31:07;22.98;;;8.73;;
50367;SDS011;36281;34.132;-118.018;2023-04-24T04:33:37;22.02;;;8.85;;
50367;SDS011;36281;34.132;-118.018;2023-04-24T04:36:07;16.23;;;8.63;;
50367;SDS011;36281;34.132;-118.018;2023-04-24T04:38:36;13.60;;;7.95;;
50367;SDS011;36281;34.132;-118.018;2023-04-24T04:41:07;18.90;;;9.02;;
50367;SDS011;36281;34.132;-118.018;2023-04-24T04:43:38;19.23;;;8.30;;
50367;SDS011;36281;34.132;-118.018;2023-04-24T04:46:08;19.10;;;9.05;;
50367;SDS011;36281;34.132;-118.018;2023-04-24T04:48:38;18.08;;;8.55;;
50367;SDS011;36281;34.132;-118.018;2023-04-24T04:51:08;17.98;;;8.40;;
50367;SDS011;36281;34.132;-118.018;2023-04-24T04:53:37;17.63;;;8.88;;
50367;SDS011;36281;34.132;-118.018;2023-04-24T04:56:06;18.05;;;8.50;;
50367;SDS011;36281;34.132;-118.018;2023-04-24T04:58:35;20.08;;;8.63;;
50367;SDS011;36281;34.132;-118.018;2023-04-24T05:01:06;19.02;;;8.98;;
50367;SDS011;36281;34.132;-118.018;2023-04-24T05:03:35;21.10;;;8.95;;
50367;SDS011;36281;34.132;-118.018;2023-04-24T05:06:05;24.42;;;9.23;;
50367;SDS011;36281;34.132;-118.018;2023-04-24T05:08:34;22.92;;;9.85;;
50367;SDS011;36281;34.132;-118.018;2023-04-24T05:11:03;17.38;;;8.60;;
50367;SDS011;36281;34.132;-118.018;2023-04-24T05:13:33;21.17;;;9.43;;
50367;SDS011;36281;34.132;-118.018;2023-04-24T05:16:08;27.83;;;10.40;;
50367;SDS011;36281;34.132;-118.018;2023-04-24T05:18:37;20.65;;;9.50;;
50367;SDS011;36281;34.132;-118.018;2023-04-24T05:21:07;21.48;;;10.27;;
50367;SDS011;36281;34.132;-118.018;2023-04-24T05:23:36;23.08;;;10.10;;
50367;SDS011;36281;34.132;-118.018;2023-04-24T05:26:05;19.45;;;9.20;;
50367;SDS011;36281;34.132;-118.018;2023-04-24T05:28:34;26.05;;;10.23;;
50367;SDS011;36281;34.132;-118.018;2023-04-24T05:31:04;22.52;;;11.50;;
50367;SDS011;36281;34.132;-118.018;2023-04-24T05:33:35;24.45;;;11.60;;
50367;SDS011;36281;34.132;-118.018;2023-04-24T05:36:06;24.45;;;10.57;;
50367;SDS011;36281;34.132;-118.018;2023-04-24T05:38:35;23.80;;;10.27;;
50367;SDS011;36281;34.132;-118.018;2023-04-24T05:41:04;21.25;;;9.50;;
50367;SDS011;36281;34.132;-118.018;2023-04-24T05:43:33;21.17;;;9.95;;
50367;SDS011;36281;34.132;-118.018;2023-04-24T05:46:02;24.08;;;11.57;;
50367;SDS011;36281;34.132;-118.018;2023-04-24T05:48:31;23.30;;;9.80;;
50367;SDS011;36281;34.132;-118.018;2023-04-24T05:51:02;19.98;;;9.95;;
50367;SDS011;36281;34.132;-118.018;2023-04-24T05:53:31;20.35;;;10.88;;
50367;SDS011;36281;34.132;-118.018;2023-04-24T05:56:00;23.50;;;11.00;;
50367;SDS011;36281;34.132;-118.018;2023-04-24T05:58:29;28.90;;;12.20;;
50367;SDS011;36281;34.132;-118.018;2023-04-24T06:00:58;20.40;;;10.85;;
50367;SDS011;36281;34.132;-118.018;2023-04-24T06:03:29;21.75;;;10.90;;
50367;SDS011;36281;34.132;-118.018;2023-04-24T06:05:58;20.00;;;11.07;;
50367;SDS011;36281;34.132;-118.018;2023-04-24T06:08:29;24.30;;;11.13;;
50367;SDS011;36281;34.132;-118.018;2023-04-24T06:10:58;28.52;;;12.05;;
50367;SDS011;36281;34.132;-118.018;2023-04-24T06:13:30;25.55;;;11.52;;
50367;SDS011;36281;34.132;-118.018;2023-04-24T06:15:59;28.58;;;12.45;;
50367;SDS011;36281;34.132;-118.018;2023-04-24T06:18:29;22.80;;;10.95;;
50367;SDS011;36281;34.132;-118.018;2023-04-24T06:20:58;28.25;;;11.60;;
50367;SDS011;36281;34.132;-118.018;2023-04-24T06:23:29;23.08;;;11.45;;
50367;SDS011;36281;34.132;-118.018;2023-04-24T06:26:00;24.90;;;12.07;;
50367;SDS011;36281;34.132;-118.018;2023-04-24T06:28:29;22.75;;;11.20;;
50367;SDS011;36281;34.132;-118.018;2023-04-24T06:30:58;24.92;;;12.15;;
50367;SDS011;36281;34.132;-118.018;2023-04-24T06:33:27;24.90;;;12.70;;
50367;SDS011;36281;34.132;-118.018;2023-04-24T06:35:56;29.45;;;12.40;;
50367;SDS011;36281;34.132;-118.018;2023-04-24T06:38:25;30.52;;;12.48;;
50367;SDS011;36281;34.132;-118.018;2023-04-24T06:40:56;28.20;;;13.00;;
50367;SDS011;36281;34.132;-118.018;2023-04-24T06:43:25;25.55;;;13.65;;
50367;SDS011;36281;34.132;-118.018;2023-04-24T06:45:54;27.30;;;12.88;;
50367;SDS011;36281;34.132;-118.018;2023-04-24T06:48:23;25.38;;;13.73;;
50367;SDS011;36281;34.132;-118.018;2023-04-24T06:50:53;26.92;;;13.63;;
50367;SDS011;36281;34.132;-118.018;2023-04-24T06:53:22;26.88;;;12.90;;
50367;SDS011;36281;34.132;-118.018;2023-04-24T06:55:51;28.00;;;13.48;;
50367;SDS011;36281;34.132;-118.018;2023-04-24T06:58:23;26.13;;;14.35;;
50367;SDS011;36281;34.132;-118.018;2023-04-24T07:00:53;30.40;;;13.70;;
50367;SDS011;36281;34.132;-118.018;2023-04-24T07:03:22;25.30;;;13.90;;
50367;SDS011;36281;34.132;-118.018;2023-04-24T07:05:51;24.27;;;14.77;;
50367;SDS011;36281;34.132;-118.018;2023-04-24T07:08:21;26.85;;;14.27;;
50367;SDS011;36281;34.132;-118.018;2023-04-24T07:10:50;25.92;;;14.30;;
50367;SDS011;36281;34.132;-118.018;2023-04-24T07:13:19;29.70;;;15.68;;
50367;SDS011;36281;34.132;-118.018;2023-04-24T07:15:50;29.10;;;15.15;;
50367;SDS011;36281;34.132;-118.018;2023-04-24T07:18:21;26.83;;;14.85;;
50367;SDS011;36281;34.132;-118.018;2023-04-24T07:20:50;25.67;;;14.52;;
50367;SDS011;36281;34.132;-118.018;2023-04-24T07:23:19;24.20;;;13.70;;
50367;SDS011;36281;34.132;-118.018;2023-04-24T07:25:49;26.00;;;12.52;;
50367;SDS011;36281;34.132;-118.018;2023-04-24T07:28:18;25.15;;;12.48;;
50367;SDS011;36281;34.132;-118.018;2023-04-24T07:30:48;23.23;;;11.90;;
50367;SDS011;36281;34.132;-118.018;2023-04-24T07:33:18;21.92;;;12.43;;
50367;SDS011;36281;34.132;-118.018;2023-04-24T07:35:47;23.23;;;11.93;;
50367;SDS011;36281;34.132;-118.018;2023-04-24T07:38:16;24.80;;;12.05;;
50367;SDS011;36281;34.132;-118.018;2023-04-24T07:40:48;19.17;;;10.85;;
50367;SDS011;36281;34.132;-118.018;2023-04-24T07:43:17;23.38;;;11.68;;
50367;SDS011;36281;34.132;-118.018;2023-04-24T07:45:49;24.98;;;12.88;;
50367;SDS011;36281;34.132;-118.018;2023-04-24T07:48:19;31.10;;;11.98;;
50367;SDS011;36281;34.132;-118.018;2023-04-24T07:50:49;23.65;;;11.88;;
50367;SDS011;36281;34.132;-118.018;2023-04-24T07:53:18;26.17;;;12.80;;
50367;SDS011;36281;34.132;-118.018;2023-04-24T07:55:47;22.60;;;12.25;;
50367;SDS011;36281;34.132;-118.018;2023-04-24T07:58:16;24.08;;;11.45;;
50367;SDS011;36281;34.132;-118.018;2023-04-24T08:00:46;25.42;;;13.07;;
50367;SDS011;36281;34.132;-118.018;2023-04-24T08:03:17;23.83;;;11.48;;
50367;SDS011;36281;34.132;-118.018;2023-04-24T08:05:47;21.70;;;11.52;;
50367;SDS011;36281;34.132;-118.018;2023-04-24T08:08:19;22.73;;;12.57;;
50367;SDS011;36281;34.132;-118.018;2023-04-24T08:10:49;26.67;;;12.15;;
50367;SDS011;36281;34.132;-118.018;2023-04-24T08:13:19;22.08;;;11.43;;
50367;SDS011;36281;34.132;-118.018;2023-04-24T08:15:48;24.05;;;12.63;;
50367;SDS011;36281;34.132;-118.018;2023-04-24T08:18:19;24.08;;;12.20;;
50367;SDS011;36281;34.132;-118.018;2023-04-24T08:20:48;21.45;;;11.30;;
50367;SDS011;36281;34.132;-118.018;2023-04-24T08:23:17;25.67;;;12.23;;
50367;SDS011;36281;34.132;-118.018;2023-04-24T08:25:46;25.40;;;12.10;;
50367;SDS011;36281;34.132;-118.018;2023-04-24T08:28:16;22.35;;;12.52;;
50367;SDS011;36281;34.132;-118.018;2023-04-24T08:30:47;25.40;;;12.63;;
50367;SDS011;36281;34.132;-118.018;2023-04-24T08:33:24;22.73;;;12.13;;
50367;SDS011;36281;34.132;-118.018;2023-04-24T08:35:53;25.00;;;12.20;;
50367;SDS011;36281;34.132;-118.018;2023-04-24T08:38:22;24.08;;;11.90;;
50367;SDS011;36281;34.132;-118.018;2023-04-24T08:40:52;21.60;;;11.50;;
50367;SDS011;36281;34.132;-118.018;2023-04-24T08:43:21;22.15;;;12.02;;
50367;SDS011;36281;34.132;-118.018;2023-04-24T08:45:51;24.77;;;12.43;;
50367;SDS011;36281;34.132;-118.018;2023-04-24T08:48:24;21.17;;;12.40;;
50367;SDS011;36281;34.132;-118.018;2023-04-24T08:50:57;22.52;;;12.00;;
50367;SDS011;36281;34.132;-118.018;2023-04-24T08:53:27;27.85;;;12.52;;
50367;SDS011;36281;34.132;-118.018;2023-04-24T08:55:56;20.52;;;12.45;;
50367;SDS011;36281;34.132;-118.018;2023-04-24T08:58:26;25.70;;;12.02;;
50367;SDS011;36281;34.132;-118.018;2023-04-24T09:00:56;22.85;;;12.20;;
50367;SDS011;36281;34.132;-118.018;2023-04-24T09:03:28;25.77;;;12.05;;
50367;SDS011;36281;34.132;-118.018;2023-04-24T09:05:58;24.23;;;12.27;;
50367;SDS011;36281;34.132;-118.018;2023-04-24T09:08:28;25.75;;;14.48;;
50367;SDS011;36281;34.132;-118.018;2023-04-24T09:10:58;26.15;;;13.05;;
50367;SDS011;36281;34.132;-118.018;2023-04-24T09:13:30;25.27;;;12.23;;
50367;SDS011;36281;34.132;-118.018;2023-04-24T09:16:00;23.48;;;12.00;;
50367;SDS011;36281;34.132;-118.018;2023-04-24T09:18:31;22.70;;;12.45;;
50367;SDS011;36281;34.132;-118.018;2023-04-24T09:21:01;21.58;;;12.88;;
50367;SDS011;36281;34.132;-118.018;2023-04-24T09:23:31;25.25;;;12.32;;
50367;SDS011;36281;34.132;-118.018;2023-04-24T09:26:02;27.63;;;12.43;;
50367;SDS011;36281;34.132;-118.018;2023-04-24T09:28:35;25.52;;;12.35;;
50367;SDS011;36281;34.132;-118.018;2023-04-24T09:31:06;22.48;;;12.35;;
50367;SDS011;36281;34.132;-118.018;2023-04-24T09:33:38;28.15;;;12.38;;
50367;SDS011;36281;34.132;-118.018;2023-04-24T09:36:08;25.30;;;12.88;;
50367;SDS011;36281;34.132;-118.018;2023-04-24T09:38:37;23.23;;;11.70;;
50367;SDS011;36281;34.132;-118.018;2023-04-24T09:41:07;23.40;;;11.35;;
50367;SDS011;36281;34.132;-118.018;2023-04-24T09:43:36;25.20;;;12.88;;
50367;SDS011;36281;34.132;-118.018;2023-04-24T09:46:05;24.15;;;12.77;;
50367;SDS011;36281;34.132;-118.018;2023-04-24T09:48:36;21.77;;;13.30;;
50367;SDS011;36281;34.132;-118.018;2023-04-24T09:51:07;25.88;;;12.65;;
50367;SDS011;36281;34.132;-118.018;2023-04-24T09:53:39;21.45;;;11.75;;
50367;SDS011;36281;34.132;-118.018;2023-04-24T09:56:09;23.63;;;12.73;;
50367;SDS011;36281;34.132;-118.018;2023-04-24T09:58:40;27.52;;;13.77;;
50367;SDS011;36281;34.132;-118.018;2023-04-24T10:01:09;22.63;;;13.25;;
50367;SDS011;36281;34.132;-118.018;2023-04-24T10:03:42;26.02;;;13.25;;
50367;SDS011;36281;34.132;-118.018;2023-04-24T10:06:14;21.23;;;13.88;;
50367;SDS011;36281;34.132;-118.018;2023-04-24T10:08:43;21.88;;;13.13;;
50367;SDS011;36281;34.132;-118.018;2023-04-24T10:11:13;24.77;;;14.85;;
50367;SDS011;36281;34.132;-118.018;2023-04-24T10:13:43;22.45;;;12.43;;
50367;SDS011;36281;34.132;-118.018;2023-04-24T10:16:12;23.58;;;10.57;;
50367;SDS011;36281;34.132;-118.018;2023-04-24T10:18:44;24.73;;;11.60;;
50367;SDS011;36281;34.132;-118.018;2023-04-24T10:21:16;20.10;;;10.65;;
50367;SDS011;36281;34.132;-118.018;2023-04-24T10:23:45;20.90;;;10.48;;
50367;SDS011;36281;34.132;-118.018;2023-04-24T10:26:15;21.63;;;10.68;;
50367;SDS011;36281;34.132;-118.018;2023-04-24T10:28:47;24.50;;;11.63;;
50367;SDS011;36281;34.132;-118.018;2023-04-24T10:31:16;18.45;;;10.90;;
50367;SDS011;36281;34.132;-118.018;2023-04-24T10:33:48;25.02;;;11.05;;
50367;SDS011;36281;34.132;-118.018;2023-04-24T10:36:22;22.65;;;11.10;;
50367;SDS011;36281;34.132;-118.018;2023-04-24T10:38:54;22.38;;;11.50;;
50367;SDS011;36281;34.132;-118.018;2023-04-24T10:41:26;21.25;;;10.90;;
50367;SDS011;36281;34.132;-118.018;2023-04-24T10:44:06;30.52;;;13.13;;
50367;SDS011;36281;34.132;-118.018;2023-04-24T10:46:37;22.73;;;11.75;;
50367;SDS011;36281;34.132;-118.018;2023-04-24T10:49:09;19.27;;;10.00;;
50367;SDS011;36281;34.132;-118.018;2023-04-24T10:51:48;24.35;;;11.10;;
50367;SDS011;36281;34.132;-118.018;2023-04-24T10:54:27;21.20;;;10.20;;
50367;SDS011;36281;34.132;-118.018;2023-04-24T11:02:45;22.25;;;10.68;;
50367;SDS011;36281;34.132;-118.018;2023-04-24T11:05:22;26.90;;;10.90;;
50367;SDS011;36281;34.132;-118.018;2023-04-24T11:08:11;21.35;;;10.13;;
50367;SDS011;36281;34.132;-118.018;2023-04-24T11:10:44;24.67;;;10.48;;
50367;SDS011;36281;34.132;-118.018;2023-04-24T11:13:14;22.90;;;10.88;;
50367;SDS011;36281;34.132;-118.018;2023-04-24T11:15:44;24.42;;;10.52;;
50367;SDS011;36281;34.132;-118.018;2023-04-24T11:18:37;24.08;;;12.13;;
50367;SDS011;36281;34.132;-118.018;2023-04-24T11:21:12;21.17;;;10.82;;
50367;SDS011;36281;34.132;-118.018;2023-04-24T11:23:41;20.52;;;11.65;;
50367;SDS011;36281;34.132;-118.018;2023-04-24T11:26:10;21.90;;;10.68;;
50367;SDS011;36281;34.132;-118.018;2023-04-24T11:28:47;21.67;;;11.02;;
50367;SDS011;36281;34.132;-118.018;2023-04-24T11:31:36;23.17;;;10.40;;
50367;SDS011;36281;34.132;-118.018;2023-04-24T11:34:07;19.80;;;10.50;;
50367;SDS011;36281;34.132;-118.018;2023-04-24T11:36:40;24.33;;;10.63;;
50367;SDS011;36281;34.132;-118.018;2023-04-24T11:39:10;21.65;;;10.10;;
50367;SDS011;36281;34.132;-118.018;2023-04-24T11:41:39;22.50;;;10.50;;
50367;SDS011;36281;34.132;-118.018;2023-04-24T11:44:09;20.63;;;10.43;;
50367;SDS011;36281;34.132;-118.018;2023-04-24T11:46:39;17.45;;;10.57;;
50367;SDS011;36281;34.132;-118.018;2023-04-24T11:49:09;19.38;;;10.82;;
50367;SDS011;36281;34.132;-118.018;2023-04-24T11:51:38;16.90;;;10.55;;
50367;SDS011;36281;34.132;-118.018;2023-04-24T11:54:19;22.40;;;10.98;;
50367;SDS011;36281;34.132;-118.018;2023-04-24T11:56:48;26.02;;;11.48;;
50367;SDS011;36281;34.132;-118.018;2023-04-24T11:59:18;29.55;;;11.50;;
50367;SDS011;36281;34.132;-118.018;2023-04-24T12:01:47;24.33;;;11.60;;
50367;SDS011;36281;34.132;-118.018;2023-04-24T12:04:17;23.63;;;11.50;;
50367;SDS011;36281;34.132;-118.018;2023-04-24T12:07:01;20.77;;;11.30;;
50367;SDS011;36281;34.132;-118.018;2023-04-24T12:09:40;23.30;;;11.65;;
50367;SDS011;36281;34.132;-118.018;2023-04-24T12:12:12;24.10;;;12.05;;
50367;SDS011;36281;34.132;-118.018;2023-04-24T12:14:49;27.15;;;12.00;;
50367;SDS011;36281;34.132;-118.018;2023-04-24T12:17:24;28.92;;;13.32;;
50367;SDS011;36281;34.132;-118.018;2023-04-24T12:19:58;25.40;;;13.88;;
50367;SDS011;36281;34.132;-118.018;2023-04-24T12:22:35;35.92;;;13.38;;
50367;SDS011;36281;34.132;-118.018;2023-04-24T12:25:13;25.85;;;13.50;;
50367;SDS011;36281;34.132;-118.018;2023-04-24T12:27:43;27.10;;;13.25;;
50367;SDS011;36281;34.132;-118.018;2023-04-24T12:30:13;31.27;;;14.73;;
50367;SDS011;36281;34.132;-118.018;2023-04-24T12:32:43;31.05;;;13.15;;
50367;SDS011;36281;34.132;-118.018;2023-04-24T12:35:18;25.88;;;13.35;;
50367;SDS011;36281;34.132;-118.018;2023-04-24T12:37:51;27.73;;;12.13;;
50367;SDS011;36281;34.132;-118.018;2023-04-24T12:40:21;23.05;;;12.05;;
50367;SDS011;36281;34.132;-118.018;2023-04-24T12:42:53;30.30;;;12.68;;
50367;SDS011;36281;34.132;-118.018;2023-04-24T12:45:23;27.05;;;13.10;;
50367;SDS011;36281;34.132;-118.018;2023-04-24T12:47:54;24.40;;;12.35;;
50367;SDS011;36281;34.132;-118.018;2023-04-24T12:50:24;27.13;;;12.80;;
50367;SDS011;36281;34.132;-118.018;2023-04-24T12:52:54;23.88;;;11.82;;
50367;SDS011;36281;34.132;-118.018;2023-04-24T12:55:23;24.25;;;12.30;;
50367;SDS011;36281;34.132;-118.018;2023-04-24T12:57:52;27.77;;;12.13;;
50367;SDS011;36281;34.132;-118.018;2023-04-24T13:00:23;28.70;;;12.43;;
50367;SDS011;36281;34.132;-118.018;2023-04-24T13:02:52;28.30;;;12.57;;
50367;SDS011;36281;34.132;-118.018;2023-04-24T13:05:21;28.35;;;12.30;;
50367;SDS011;36281;34.132;-118.018;2023-04-24T13:07:51;24.77;;;12.73;;
50367;SDS011;36281;34.132;-118.018;2023-04-24T13:10:22;27.60;;;13.70;;
50367;SDS011;36281;34.132;-118.018;2023-04-24T13:12:51;26.52;;;13.27;;
50367;SDS011;36281;34.132;-118.018;2023-04-24T13:15:20;28.17;;;13.02;;
50367;SDS011;36281;34.132;-118.018;2023-04-24T13:17:50;25.75;;;12.18;;
50367;SDS011;36281;34.132;-118.018;2023-04-24T13:20:19;28.63;;;13.50;;
50367;SDS011;36281;34.132;-118.018;2023-04-24T13:22:48;25.02;;;12.32;;
50367;SDS011;36281;34.132;-118.018;2023-04-24T13:25:17;20.48;;;11.27;;
50367;SDS011;36281;34.132;-118.018;2023-04-24T13:27:52;21.83;;;10.95;;
50367;SDS011;36281;34.132;-118.018;2023-04-24T13:30:21;20.55;;;10.88;;
50367;SDS011;36281;34.132;-118.018;2023-04-24T13:32:50;19.48;;;10.50;;
50367;SDS011;36281;34.132;-118.018;2023-04-24T13:35:19;20.52;;;10.68;;
50367;SDS011;36281;34.132;-118.018;2023-04-24T13:37:49;22.30;;;11.60;;
50367;SDS011;36281;34.132;-118.018;2023-04-24T13:40:18;24.60;;;11.20;;
50367;SDS011;36281;34.132;-118.018;2023-04-24T13:42:47;19.33;;;10.55;;
50367;SDS011;36281;34.132;-118.018;2023-04-24T13:45:18;23.75;;;11.75;;
50367;SDS011;36281;34.132;-118.018;2023-04-24T13:47:51;22.25;;;10.32;;
50367;SDS011;36281;34.132;-118.018;2023-04-24T13:50:21;20.95;;;10.40;;
50367;SDS011;36281;34.132;-118.018;2023-04-24T13:52:50;25.63;;;11.07;;
50367;SDS011;36281;34.132;-118.018;2023-04-24T13:55:19;19.65;;;10.25;;
50367;SDS011;36281;34.132;-118.018;2023-04-24T13:57:48;24.55;;;10.55;;
50367;SDS011;36281;34.132;-118.018;2023-04-24T14:00:20;21.10;;;10.48;;
50367;SDS011;36281;34.132;-118.018;2023-04-24T14:02:49;24.00;;;11.32;;
50367;SDS011;36281;34.132;-118.018;2023-04-24T14:05:18;22.83;;;11.13;;
50367;SDS011;36281;34.132;-118.018;2023-04-24T14:07:49;23.02;;;11.50;;
50367;SDS011;36281;34.132;-118.018;2023-04-24T14:10:18;25.48;;;11.15;;
50367;SDS011;36281;34.132;-118.018;2023-04-24T14:12:47;21.65;;;11.45;;